sensor_id;sensor_type;location;lat;lon;timestamp;P1;durP1;ratioP1;P2;durP2;ratioP2
19794;SDS011;10057;59.402;17.866;2022-07-23T00:00:36;24.60;;;5.23;;
19794;SDS011;10057;59.402;17.866;2022-07-23T00:03:05;27.70;;;5.80;;
19794;SDS011;10057;59.402;17.866;2022-07-23T00:05:32;29.33;;;5.60;;
19794;SDS011;10057;59.402;17.866;2022-07-23T00:08:02;36.20;;;6.87;;
19794;SDS011;10057;59.402;17.866;2022-07-23T00:10:28;30.67;;;6.43;;
19794;SDS011;10057;59.402;17.866;2022-07-23T00:12:55;26.23;;;5.97;;
19794;SDS011;10057;59.402;17.866;2022-07-23T00:15:22;30.20;;;6.50;;
19794;SDS011;10057;59.402;17.866;2022-07-23T00:17:49;32.33;;;6.60;;
19794;SDS011;10057;59.402;17.866;2022-07-23T00:20:16;29.70;;;6.83;;
19794;SDS011;10057;59.402;17.866;2022-07-23T00:22:47;27.30;;;6.67;;
19794;SDS011;10057;59.402;17.866;2022-07-23T00:25:17;33.30;;;6.67;;
19794;SDS011;10057;59.402;17.866;2022-07-23T00:27:55;28.80;;;6.70;;
19794;SDS011;10057;59.402;17.866;2022-07-23T00:30:23;25.03;;;6.03;;
19794;SDS011;10057;59.402;17.866;2022-07-23T00:32:51;28.20;;;6.23;;
19794;SDS011;10057;59.402;17.866;2022-07-23T00:35:22;30.67;;;7.00;;
19794;SDS011;10057;59.402;17.866;2022-07-23T00:37:50;30.67;;;6.67;;
19794;SDS011;10057;59.402;17.866;2022-07-23T00:40:16;28.33;;;6.53;;
19794;SDS011;10057;59.402;17.866;2022-07-23T00:42:43;23.77;;;6.37;;
19794;SDS011;10057;59.402;17.866;2022-07-23T00:45:10;22.37;;;5.97;;
19794;SDS011;10057;59.402;17.866;2022-07-23T00:47:37;26.63;;;6.83;;
19794;SDS011;10057;59.402;17.866;2022-07-23T00:50:04;24.43;;;7.20;;
19794;SDS011;10057;59.402;17.866;2022-07-23T00:52:33;29.90;;;6.50;;
19794;SDS011;10057;59.402;17.866;2022-07-23T00:55:00;27.27;;;6.37;;
19794;SDS011;10057;59.402;17.866;2022-07-23T00:57:27;35.00;;;6.70;;
19794;SDS011;10057;59.402;17.866;2022-07-23T00:59:54;21.63;;;5.43;;
19794;SDS011;10057;59.402;17.866;2022-07-23T01:02:22;21.57;;;5.37;;
19794;SDS011;10057;59.402;17.866;2022-07-23T01:04:49;21.53;;;5.50;;
19794;SDS011;10057;59.402;17.866;2022-07-23T01:07:16;19.80;;;5.30;;
19794;SDS011;10057;59.402;17.866;2022-07-23T01:09:44;19.03;;;5.43;;
19794;SDS011;10057;59.402;17.866;2022-07-23T01:12:11;21.63;;;5.27;;
19794;SDS011;10057;59.402;17.866;2022-07-23T01:14:41;23.30;;;4.87;;
19794;SDS011;10057;59.402;17.866;2022-07-23T01:17:08;18.47;;;4.57;;
19794;SDS011;10057;59.402;17.866;2022-07-23T01:19:41;17.70;;;4.63;;
19794;SDS011;10057;59.402;17.866;2022-07-23T01:22:11;17.23;;;4.27;;
19794;SDS011;10057;59.402;17.866;2022-07-23T01:24:38;20.27;;;4.23;;
19794;SDS011;10057;59.402;17.866;2022-07-23T01:27:05;19.10;;;3.83;;
19794;SDS011;10057;59.402;17.866;2022-07-23T01:29:32;19.53;;;3.37;;
19794;SDS011;10057;59.402;17.866;2022-07-23T01:31:58;17.03;;;3.67;;
19794;SDS011;10057;59.402;17.866;2022-07-23T01:34:28;20.87;;;4.10;;
19794;SDS011;10057;59.402;17.866;2022-07-23T01:36:58;15.80;;;3.60;;
19794;SDS011;10057;59.402;17.866;2022-07-23T01:39:28;19.47;;;3.23;;
19794;SDS011;10057;59.402;17.866;2022-07-23T01:41:54;12.97;;;3.20;;
19794;SDS011;10057;59.402;17.866;2022-07-23T01:44:21;17.63;;;2.83;;
19794;SDS011;10057;59.402;17.866;2022-07-23T01:46:48;11.10;;;2.80;;
19794;SDS011;10057;59.402;17.866;2022-07-23T01:49:15;10.10;;;2.43;;
19794;SDS011;10057;59.402;17.866;2022-07-23T01:51:42;15.40;;;3.03;;
19794;SDS011;10057;59.402;17.866;2022-07-23T01:54:30;11.00;;;2.70;;
19794;SDS011;10057;59.402;17.866;2022-07-23T01:56:58;8.30;;;2.20;;
19794;SDS011;10057;59.402;17.866;2022-07-23T01:59:26;5.43;;;1.90;;
19794;SDS011;10057;59.402;17.866;2022-07-23T02:01:54;6.20;;;1.80;;
19794;SDS011;10057;59.402;17.866;2022-07-23T02:04:21;7.00;;;1.77;;
19794;SDS011;10057;59.402;17.866;2022-07-23T02:06:49;7.73;;;1.87;;
19794;SDS011;10057;59.402;17.866;2022-07-23T02:09:16;10.20;;;1.70;;
19794;SDS011;10057;59.402;17.866;2022-07-23T02:11:43;3.43;;;1.43;;
19794;SDS011;10057;59.402;17.866;2022-07-23T02:14:10;4.27;;;1.23;;
19794;SDS011;10057;59.402;17.866;2022-07-23T02:16:36;2.50;;;1.00;;
19794;SDS011;10057;59.402;17.866;2022-07-23T02:19:03;4.77;;;1.00;;
19794;SDS011;10057;59.402;17.866;2022-07-23T02:21:30;3.10;;;1.17;;
19794;SDS011;10057;59.402;17.866;2022-07-23T02:23:57;2.27;;;0.87;;
19794;SDS011;10057;59.402;17.866;2022-07-23T02:26:24;2.00;;;0.90;;
19794;SDS011;10057;59.402;17.866;2022-07-23T02:28:51;2.23;;;0.83;;
19794;SDS011;10057;59.402;17.866;2022-07-23T02:31:19;3.43;;;1.10;;
19794;SDS011;10057;59.402;17.866;2022-07-23T02:33:46;1.40;;;0.73;;
19794;SDS011;10057;59.402;17.866;2022-07-23T02:36:13;1.77;;;0.77;;
19794;SDS011;10057;59.402;17.866;2022-07-23T02:38:40;3.17;;;0.80;;
19794;SDS011;10057;59.402;17.866;2022-07-23T02:41:06;1.53;;;0.70;;
19794;SDS011;10057;59.402;17.866;2022-07-23T02:43:33;1.53;;;0.70;;
19794;SDS011;10057;59.402;17.866;2022-07-23T02:46:00;2.43;;;0.80;;
19794;SDS011;10057;59.402;17.866;2022-07-23T02:48:27;1.77;;;0.63;;
19794;SDS011;10057;59.402;17.866;2022-07-23T02:50:54;0.87;;;0.43;;
19794;SDS011;10057;59.402;17.866;2022-07-23T02:53:23;1.57;;;0.50;;
19794;SDS011;10057;59.402;17.866;2022-07-23T02:55:50;1.40;;;0.67;;
19794;SDS011;10057;59.402;17.866;2022-07-23T02:58:17;1.57;;;0.50;;
19794;SDS011;10057;59.402;17.866;2022-07-23T03:00:43;2.07;;;0.70;;
19794;SDS011;10057;59.402;17.866;2022-07-23T03:03:10;1.13;;;0.60;;
19794;SDS011;10057;59.402;17.866;2022-07-23T03:05:37;2.00;;;0.70;;
19794;SDS011;10057;59.402;17.866;2022-07-23T03:08:04;2.77;;;0.57;;
19794;SDS011;10057;59.402;17.866;2022-07-23T03:10:31;2.60;;;0.70;;
19794;SDS011;10057;59.402;17.866;2022-07-23T03:12:57;2.13;;;0.70;;
19794;SDS011;10057;59.402;17.866;2022-07-23T03:15:24;1.90;;;0.80;;
19794;SDS011;10057;59.402;17.866;2022-07-23T03:17:51;5.57;;;0.80;;
19794;SDS011;10057;59.402;17.866;2022-07-23T03:20:17;2.47;;;0.60;;
19794;SDS011;10057;59.402;17.866;2022-07-23T03:22:44;1.70;;;0.80;;
19794;SDS011;10057;59.402;17.866;2022-07-23T03:25:11;3.17;;;0.80;;
19794;SDS011;10057;59.402;17.866;2022-07-23T03:27:37;2.50;;;0.90;;
19794;SDS011;10057;59.402;17.866;2022-07-23T03:30:04;3.23;;;0.80;;
19794;SDS011;10057;59.402;17.866;2022-07-23T03:32:31;3.03;;;1.03;;
19794;SDS011;10057;59.402;17.866;2022-07-23T03:34:58;2.77;;;0.90;;
19794;SDS011;10057;59.402;17.866;2022-07-23T03:37:25;2.30;;;1.00;;
19794;SDS011;10057;59.402;17.866;2022-07-23T03:39:52;2.60;;;0.80;;
19794;SDS011;10057;59.402;17.866;2022-07-23T03:42:19;3.23;;;0.93;;
19794;SDS011;10057;59.402;17.866;2022-07-23T03:44:45;4.40;;;0.90;;
19794;SDS011;10057;59.402;17.866;2022-07-23T03:47:12;1.40;;;0.73;;
19794;SDS011;10057;59.402;17.866;2022-07-23T03:49:39;2.20;;;0.80;;
19794;SDS011;10057;59.402;17.866;2022-07-23T03:52:06;2.30;;;1.07;;
19794;SDS011;10057;59.402;17.866;2022-07-23T03:54:33;1.97;;;1.20;;
19794;SDS011;10057;59.402;17.866;2022-07-23T03:57:00;4.70;;;1.20;;
19794;SDS011;10057;59.402;17.866;2022-07-23T03:59:26;4.10;;;1.20;;
19794;SDS011;10057;59.402;17.866;2022-07-23T04:01:53;1.80;;;1.07;;
19794;SDS011;10057;59.402;17.866;2022-07-23T04:04:20;1.93;;;1.00;;
19794;SDS011;10057;59.402;17.866;2022-07-23T04:06:47;3.93;;;1.00;;
19794;SDS011;10057;59.402;17.866;2022-07-23T04:09:13;3.93;;;1.00;;
19794;SDS011;10057;59.402;17.866;2022-07-23T04:11:40;2.10;;;0.90;;
19794;SDS011;10057;59.402;17.866;2022-07-23T04:14:07;2.63;;;1.43;;
19794;SDS011;10057;59.402;17.866;2022-07-23T04:16:33;1.93;;;1.10;;
19794;SDS011;10057;59.402;17.866;2022-07-23T04:19:00;3.67;;;1.00;;
19794;SDS011;10057;59.402;17.866;2022-07-23T04:21:27;2.73;;;0.80;;
19794;SDS011;10057;59.402;17.866;2022-07-23T04:23:54;2.47;;;1.03;;
19794;SDS011;10057;59.402;17.866;2022-07-23T04:26:21;1.57;;;0.93;;
19794;SDS011;10057;59.402;17.866;2022-07-23T04:28:47;1.77;;;0.73;;
19794;SDS011;10057;59.402;17.866;2022-07-23T04:31:14;1.20;;;0.83;;
19794;SDS011;10057;59.402;17.866;2022-07-23T04:33:41;3.77;;;1.13;;
19794;SDS011;10057;59.402;17.866;2022-07-23T04:36:10;3.10;;;1.10;;
19794;SDS011;10057;59.402;17.866;2022-07-23T04:38:36;2.63;;;1.23;;
19794;SDS011;10057;59.402;17.866;2022-07-23T04:41:03;2.43;;;1.20;;
19794;SDS011;10057;59.402;17.866;2022-07-23T04:43:30;5.13;;;1.60;;
19794;SDS011;10057;59.402;17.866;2022-07-23T04:45:57;5.13;;;1.17;;
19794;SDS011;10057;59.402;17.866;2022-07-23T04:48:23;2.97;;;1.10;;
19794;SDS011;10057;59.402;17.866;2022-07-23T04:50:50;6.40;;;1.13;;
19794;SDS011;10057;59.402;17.866;2022-07-23T04:53:17;2.73;;;1.10;;
19794;SDS011;10057;59.402;17.866;2022-07-23T04:55:45;3.00;;;1.33;;
19794;SDS011;10057;59.402;17.866;2022-07-23T04:58:11;2.33;;;1.23;;
19794;SDS011;10057;59.402;17.866;2022-07-23T05:00:38;3.23;;;1.00;;
19794;SDS011;10057;59.402;17.866;2022-07-23T05:03:05;2.10;;;0.97;;
19794;SDS011;10057;59.402;17.866;2022-07-23T05:05:32;2.77;;;1.10;;
19794;SDS011;10057;59.402;17.866;2022-07-23T05:07:58;1.97;;;1.00;;
19794;SDS011;10057;59.402;17.866;2022-07-23T05:10:25;2.17;;;1.10;;
19794;SDS011;10057;59.402;17.866;2022-07-23T05:12:52;2.93;;;1.30;;
19794;SDS011;10057;59.402;17.866;2022-07-23T05:15:19;2.47;;;1.23;;
19794;SDS011;10057;59.402;17.866;2022-07-23T05:17:45;1.60;;;0.87;;
19794;SDS011;10057;59.402;17.866;2022-07-23T05:20:12;3.27;;;1.20;;
19794;SDS011;10057;59.402;17.866;2022-07-23T05:22:40;2.07;;;1.20;;
19794;SDS011;10057;59.402;17.866;2022-07-23T05:25:07;2.40;;;1.10;;
19794;SDS011;10057;59.402;17.866;2022-07-23T05:27:34;2.27;;;1.13;;
19794;SDS011;10057;59.402;17.866;2022-07-23T05:30:01;4.00;;;1.10;;
19794;SDS011;10057;59.402;17.866;2022-07-23T05:32:28;3.40;;;1.10;;
19794;SDS011;10057;59.402;17.866;2022-07-23T05:34:54;1.80;;;0.90;;
19794;SDS011;10057;59.402;17.866;2022-07-23T05:37:21;2.20;;;0.93;;
19794;SDS011;10057;59.402;17.866;2022-07-23T05:39:48;3.37;;;1.20;;
19794;SDS011;10057;59.402;17.866;2022-07-23T05:42:14;1.23;;;1.00;;
19794;SDS011;10057;59.402;17.866;2022-07-23T05:44:42;1.47;;;0.90;;
19794;SDS011;10057;59.402;17.866;2022-07-23T05:47:09;5.60;;;1.00;;
19794;SDS011;10057;59.402;17.866;2022-07-23T05:49:36;3.70;;;1.10;;
19794;SDS011;10057;59.402;17.866;2022-07-23T05:52:05;2.30;;;0.80;;
19794;SDS011;10057;59.402;17.866;2022-07-23T05:54:35;1.40;;;0.80;;
19794;SDS011;10057;59.402;17.866;2022-07-23T05:57:02;1.40;;;0.63;;
19794;SDS011;10057;59.402;17.866;2022-07-23T05:59:30;2.53;;;0.70;;
19794;SDS011;10057;59.402;17.866;2022-07-23T06:01:57;1.13;;;0.77;;
19794;SDS011;10057;59.402;17.866;2022-07-23T06:04:24;1.07;;;0.70;;
19794;SDS011;10057;59.402;17.866;2022-07-23T06:06:50;1.43;;;0.97;;
19794;SDS011;10057;59.402;17.866;2022-07-23T06:09:17;1.40;;;0.70;;
19794;SDS011;10057;59.402;17.866;2022-07-23T06:11:44;0.80;;;0.70;;
19794;SDS011;10057;59.402;17.866;2022-07-23T06:14:11;0.77;;;0.70;;
19794;SDS011;10057;59.402;17.866;2022-07-23T06:16:37;1.53;;;0.70;;
19794;SDS011;10057;59.402;17.866;2022-07-23T06:19:04;2.43;;;0.70;;
19794;SDS011;10057;59.402;17.866;2022-07-23T06:21:31;1.00;;;0.70;;
19794;SDS011;10057;59.402;17.866;2022-07-23T06:24:12;2.30;;;0.83;;
19794;SDS011;10057;59.402;17.866;2022-07-23T06:26:39;2.63;;;0.70;;
19794;SDS011;10057;59.402;17.866;2022-07-23T06:29:05;0.60;;;0.50;;
19794;SDS011;10057;59.402;17.866;2022-07-23T06:31:32;3.27;;;0.70;;
19794;SDS011;10057;59.402;17.866;2022-07-23T06:33:59;1.13;;;0.70;;
19794;SDS011;10057;59.402;17.866;2022-07-23T06:36:26;2.27;;;0.63;;
19794;SDS011;10057;59.402;17.866;2022-07-23T06:38:53;0.97;;;0.63;;
19794;SDS011;10057;59.402;17.866;2022-07-23T06:41:19;1.13;;;0.63;;
19794;SDS011;10057;59.402;17.866;2022-07-23T06:43:46;0.97;;;0.60;;
19794;SDS011;10057;59.402;17.866;2022-07-23T06:46:13;1.13;;;0.63;;
19794;SDS011;10057;59.402;17.866;2022-07-23T06:48:40;1.47;;;0.70;;
19794;SDS011;10057;59.402;17.866;2022-07-23T06:51:06;2.00;;;0.70;;
19794;SDS011;10057;59.402;17.866;2022-07-23T06:53:33;1.03;;;0.70;;
19794;SDS011;10057;59.402;17.866;2022-07-23T06:56:00;1.40;;;0.60;;
19794;SDS011;10057;59.402;17.866;2022-07-23T06:58:26;0.90;;;0.73;;
19794;SDS011;10057;59.402;17.866;2022-07-23T07:00:53;1.23;;;0.50;;
19794;SDS011;10057;59.402;17.866;2022-07-23T07:03:20;1.67;;;0.63;;
19794;SDS011;10057;59.402;17.866;2022-07-23T07:05:46;1.00;;;0.60;;
19794;SDS011;10057;59.402;17.866;2022-07-23T07:08:13;0.77;;;0.50;;
19794;SDS011;10057;59.402;17.866;2022-07-23T07:10:41;1.43;;;0.90;;
19794;SDS011;10057;59.402;17.866;2022-07-23T07:13:08;1.07;;;0.60;;
19794;SDS011;10057;59.402;17.866;2022-07-23T07:15:34;0.50;;;0.50;;
19794;SDS011;10057;59.402;17.866;2022-07-23T07:18:01;1.07;;;0.67;;
19794;SDS011;10057;59.402;17.866;2022-07-23T07:20:28;0.60;;;0.50;;
19794;SDS011;10057;59.402;17.866;2022-07-23T07:22:54;0.90;;;0.60;;
19794;SDS011;10057;59.402;17.866;2022-07-23T07:25:21;0.80;;;0.70;;
19794;SDS011;10057;59.402;17.866;2022-07-23T07:27:48;1.00;;;0.70;;
19794;SDS011;10057;59.402;17.866;2022-07-23T07:30:14;0.70;;;0.50;;
19794;SDS011;10057;59.402;17.866;2022-07-23T07:32:41;3.23;;;0.60;;
19794;SDS011;10057;59.402;17.866;2022-07-23T07:35:24;0.53;;;0.53;;
19794;SDS011;10057;59.402;17.866;2022-07-23T07:37:52;0.80;;;0.60;;
19794;SDS011;10057;59.402;17.866;2022-07-23T07:40:18;1.30;;;0.50;;
19794;SDS011;10057;59.402;17.866;2022-07-23T07:42:47;4.57;;;0.60;;
19794;SDS011;10057;59.402;17.866;2022-07-23T07:45:14;1.33;;;0.50;;
19794;SDS011;10057;59.402;17.866;2022-07-23T07:47:41;1.97;;;0.60;;
19794;SDS011;10057;59.402;17.866;2022-07-23T07:50:08;2.77;;;0.50;;
19794;SDS011;10057;59.402;17.866;2022-07-23T07:52:37;1.80;;;0.60;;
19794;SDS011;10057;59.402;17.866;2022-07-23T07:55:05;1.23;;;0.60;;
19794;SDS011;10057;59.402;17.866;2022-07-23T07:57:34;0.70;;;0.60;;
19794;SDS011;10057;59.402;17.866;2022-07-23T08:00:02;1.00;;;0.60;;
19794;SDS011;10057;59.402;17.866;2022-07-23T08:02:42;0.90;;;0.50;;
19794;SDS011;10057;59.402;17.866;2022-07-23T08:05:11;1.40;;;0.50;;
19794;SDS011;10057;59.402;17.866;2022-07-23T08:07:38;1.00;;;0.70;;
19794;SDS011;10057;59.402;17.866;2022-07-23T08:10:07;5.40;;;0.60;;
19794;SDS011;10057;59.402;17.866;2022-07-23T08:12:41;1.33;;;0.60;;
19794;SDS011;10057;59.402;17.866;2022-07-23T08:15:11;0.47;;;0.47;;
19794;SDS011;10057;59.402;17.866;2022-07-23T08:17:40;0.90;;;0.50;;
19794;SDS011;10057;59.402;17.866;2022-07-23T08:20:08;0.80;;;0.40;;
19794;SDS011;10057;59.402;17.866;2022-07-23T08:22:47;0.77;;;0.50;;
19794;SDS011;10057;59.402;17.866;2022-07-23T08:25:14;1.03;;;0.60;;
19794;SDS011;10057;59.402;17.866;2022-07-23T08:27:42;0.60;;;0.30;;
19794;SDS011;10057;59.402;17.866;2022-07-23T08:30:09;0.60;;;0.40;;
19794;SDS011;10057;59.402;17.866;2022-07-23T08:32:52;0.60;;;0.60;;
19794;SDS011;10057;59.402;17.866;2022-07-23T08:35:22;0.30;;;0.30;;
19794;SDS011;10057;59.402;17.866;2022-07-23T08:37:53;1.03;;;0.50;;
19794;SDS011;10057;59.402;17.866;2022-07-23T08:40:20;0.83;;;0.50;;
19794;SDS011;10057;59.402;17.866;2022-07-23T08:42:49;1.07;;;0.33;;
19794;SDS011;10057;59.402;17.866;2022-07-23T08:45:17;0.60;;;0.43;;
19794;SDS011;10057;59.402;17.866;2022-07-23T08:47:57;0.80;;;0.40;;
19794;SDS011;10057;59.402;17.866;2022-07-23T08:50:31;1.13;;;0.50;;
19794;SDS011;10057;59.402;17.866;2022-07-23T08:53:02;0.83;;;0.40;;
19794;SDS011;10057;59.402;17.866;2022-07-23T08:55:32;0.67;;;0.40;;
19794;SDS011;10057;59.402;17.866;2022-07-23T08:58:00;0.37;;;0.30;;
19794;SDS011;10057;59.402;17.866;2022-07-23T09:00:27;1.50;;;0.50;;
19794;SDS011;10057;59.402;17.866;2022-07-23T09:02:54;0.43;;;0.37;;
19794;SDS011;10057;59.402;17.866;2022-07-23T09:05:21;0.83;;;0.30;;
19794;SDS011;10057;59.402;17.866;2022-07-23T09:10:48;0.43;;;0.40;;
19794;SDS011;10057;59.402;17.866;2022-07-23T09:13:36;0.73;;;0.40;;
19794;SDS011;10057;59.402;17.866;2022-07-23T09:16:19;0.30;;;0.30;;
19794;SDS011;10057;59.402;17.866;2022-07-23T09:19:01;0.47;;;0.47;;
19794;SDS011;10057;59.402;17.866;2022-07-23T09:21:31;0.93;;;0.30;;
19794;SDS011;10057;59.402;17.866;2022-07-23T09:24:05;0.60;;;0.40;;
19794;SDS011;10057;59.402;17.866;2022-07-23T09:26:34;1.13;;;0.40;;
19794;SDS011;10057;59.402;17.866;2022-07-23T09:29:20;0.80;;;0.40;;
19794;SDS011;10057;59.402;17.866;2022-07-23T09:31:52;3.17;;;0.50;;
19794;SDS011;10057;59.402;17.866;2022-07-23T09:34:22;2.10;;;0.40;;
19794;SDS011;10057;59.402;17.866;2022-07-23T09:36:50;0.90;;;0.50;;
19794;SDS011;10057;59.402;17.866;2022-07-23T09:39:29;2.37;;;0.60;;
19794;SDS011;10057;59.402;17.866;2022-07-23T09:41:58;0.93;;;0.40;;
19794;SDS011;10057;59.402;17.866;2022-07-23T09:44:43;0.43;;;0.40;;
19794;SDS011;10057;59.402;17.866;2022-07-23T09:47:11;2.20;;;0.67;;
19794;SDS011;10057;59.402;17.866;2022-07-23T09:49:38;0.60;;;0.40;;
19794;SDS011;10057;59.402;17.866;2022-07-23T09:52:05;2.00;;;0.53;;
19794;SDS011;10057;59.402;17.866;2022-07-23T09:54:37;2.57;;;0.50;;
19794;SDS011;10057;59.402;17.866;2022-07-23T09:57:09;3.90;;;0.50;;
19794;SDS011;10057;59.402;17.866;2022-07-23T09:59:44;1.27;;;0.60;;
19794;SDS011;10057;59.402;17.866;2022-07-23T10:02:13;0.97;;;0.50;;
19794;SDS011;10057;59.402;17.866;2022-07-23T10:04:41;2.30;;;0.40;;
19794;SDS011;10057;59.402;17.866;2022-07-23T10:07:10;5.23;;;0.50;;
19794;SDS011;10057;59.402;17.866;2022-07-23T10:09:38;0.80;;;0.50;;
19794;SDS011;10057;59.402;17.866;2022-07-23T10:12:10;0.73;;;0.43;;
19794;SDS011;10057;59.402;17.866;2022-07-23T10:14:48;0.77;;;0.40;;
19794;SDS011;10057;59.402;17.866;2022-07-23T10:17:15;3.77;;;0.50;;
19794;SDS011;10057;59.402;17.866;2022-07-23T10:19:42;1.17;;;0.50;;
19794;SDS011;10057;59.402;17.866;2022-07-23T10:22:11;1.73;;;0.57;;
19794;SDS011;10057;59.402;17.866;2022-07-23T10:27:43;0.60;;;0.60;;
19794;SDS011;10057;59.402;17.866;2022-07-23T10:30:39;0.80;;;0.60;;
19794;SDS011;10057;59.402;17.866;2022-07-23T10:33:15;1.07;;;0.60;;
19794;SDS011;10057;59.402;17.866;2022-07-23T10:38:25;3.17;;;1.00;;
19794;SDS011;10057;59.402;17.866;2022-07-23T10:41:04;1.17;;;0.57;;
19794;SDS011;10057;59.402;17.866;2022-07-23T10:43:31;0.90;;;0.63;;
19794;SDS011;10057;59.402;17.866;2022-07-23T10:57:48;1.10;;;0.60;;
19794;SDS011;10057;59.402;17.866;2022-07-23T11:00:17;0.80;;;0.60;;
19794;SDS011;10057;59.402;17.866;2022-07-23T11:02:49;1.90;;;0.60;;
19794;SDS011;10057;59.402;17.866;2022-07-23T11:05:24;0.60;;;0.50;;
19794;SDS011;10057;59.402;17.866;2022-07-23T11:10:38;0.63;;;0.50;;
19794;SDS011;10057;59.402;17.866;2022-07-23T11:34:34;1.23;;;0.70;;
19794;SDS011;10057;59.402;17.866;2022-07-23T11:37:05;1.43;;;0.73;;
19794;SDS011;10057;59.402;17.866;2022-07-23T11:39:36;1.00;;;0.63;;
19794;SDS011;10057;59.402;17.866;2022-07-23T11:42:06;1.50;;;0.60;;
19794;SDS011;10057;59.402;17.866;2022-07-23T11:44:35;2.93;;;0.93;;
19794;SDS011;10057;59.402;17.866;2022-07-23T11:47:04;1.07;;;0.70;;
19794;SDS011;10057;59.402;17.866;2022-07-23T11:49:33;1.37;;;0.70;;
19794;SDS011;10057;59.402;17.866;2022-07-23T11:52:10;3.40;;;1.10;;
19794;SDS011;10057;59.402;17.866;2022-07-23T11:57:15;2.23;;;1.10;;
19794;SDS011;10057;59.402;17.866;2022-07-23T11:59:43;2.77;;;1.07;;
19794;SDS011;10057;59.402;17.866;2022-07-23T12:02:19;1.93;;;0.70;;
19794;SDS011;10057;59.402;17.866;2022-07-23T12:04:48;1.20;;;0.60;;
19794;SDS011;10057;59.402;17.866;2022-07-23T12:12:36;5.43;;;1.00;;
19794;SDS011;10057;59.402;17.866;2022-07-23T12:15:04;1.70;;;1.00;;
19794;SDS011;10057;59.402;17.866;2022-07-23T12:17:33;1.13;;;0.67;;
19794;SDS011;10057;59.402;17.866;2022-07-23T12:20:03;2.17;;;0.80;;
19794;SDS011;10057;59.402;17.866;2022-07-23T12:22:36;0.77;;;0.70;;
19794;SDS011;10057;59.402;17.866;2022-07-23T12:25:04;1.03;;;0.70;;
19794;SDS011;10057;59.402;17.866;2022-07-23T12:27:34;0.93;;;0.80;;
19794;SDS011;10057;59.402;17.866;2022-07-23T12:30:14;1.90;;;0.60;;
19794;SDS011;10057;59.402;17.866;2022-07-23T12:32:43;1.63;;;0.80;;
19794;SDS011;10057;59.402;17.866;2022-07-23T12:35:11;1.17;;;0.80;;
19794;SDS011;10057;59.402;17.866;2022-07-23T12:37:39;3.17;;;0.73;;
19794;SDS011;10057;59.402;17.866;2022-07-23T12:43:42;1.33;;;0.80;;
19794;SDS011;10057;59.402;17.866;2022-07-23T12:45:56;1.67;;;0.60;;
19794;SDS011;10057;59.402;17.866;2022-07-23T12:48:27;1.37;;;0.83;;
19794;SDS011;10057;59.402;17.866;2022-07-23T12:51:03;1.97;;;0.80;;
19794;SDS011;10057;59.402;17.866;2022-07-23T12:53:32;1.27;;;0.73;;
19794;SDS011;10057;59.402;17.866;2022-07-23T12:56:05;0.73;;;0.60;;
19794;SDS011;10057;59.402;17.866;2022-07-23T12:58:53;1.13;;;0.67;;
19794;SDS011;10057;59.402;17.866;2022-07-23T13:01:24;1.10;;;0.67;;
19794;SDS011;10057;59.402;17.866;2022-07-23T13:03:57;0.93;;;0.63;;
19794;SDS011;10057;59.402;17.866;2022-07-23T13:06:31;1.97;;;0.73;;
19794;SDS011;10057;59.402;17.866;2022-07-23T13:09:00;2.07;;;0.80;;
19794;SDS011;10057;59.402;17.866;2022-07-23T13:11:29;2.03;;;0.80;;
19794;SDS011;10057;59.402;17.866;2022-07-23T13:13:56;1.53;;;0.53;;
19794;SDS011;10057;59.402;17.866;2022-07-23T13:16:23;3.03;;;0.70;;
19794;SDS011;10057;59.402;17.866;2022-07-23T13:18:53;1.07;;;0.60;;
19794;SDS011;10057;59.402;17.866;2022-07-23T13:21:20;2.50;;;0.80;;
19794;SDS011;10057;59.402;17.866;2022-07-23T13:23:46;1.00;;;0.60;;
19794;SDS011;10057;59.402;17.866;2022-07-23T13:26:13;1.67;;;0.60;;
19794;SDS011;10057;59.402;17.866;2022-07-23T13:28:41;3.90;;;0.80;;
19794;SDS011;10057;59.402;17.866;2022-07-23T13:31:08;1.67;;;0.70;;
19794;SDS011;10057;59.402;17.866;2022-07-23T13:33:35;1.43;;;0.73;;
19794;SDS011;10057;59.402;17.866;2022-07-23T13:36:02;1.33;;;0.80;;
19794;SDS011;10057;59.402;17.866;2022-07-23T13:38:29;2.17;;;0.90;;
19794;SDS011;10057;59.402;17.866;2022-07-23T13:40:56;1.37;;;0.73;;
19794;SDS011;10057;59.402;17.866;2022-07-23T13:43:25;1.83;;;0.70;;
19794;SDS011;10057;59.402;17.866;2022-07-23T13:45:52;0.90;;;0.60;;
19794;SDS011;10057;59.402;17.866;2022-07-23T13:48:19;1.20;;;0.60;;
19794;SDS011;10057;59.402;17.866;2022-07-23T13:50:47;1.40;;;0.80;;
19794;SDS011;10057;59.402;17.866;2022-07-23T13:53:17;1.93;;;0.80;;
19794;SDS011;10057;59.402;17.866;2022-07-23T13:55:45;0.90;;;0.70;;
19794;SDS011;10057;59.402;17.866;2022-07-23T13:58:14;0.90;;;0.70;;
19794;SDS011;10057;59.402;17.866;2022-07-23T14:00:43;2.70;;;0.97;;
19794;SDS011;10057;59.402;17.866;2022-07-23T14:03:19;1.30;;;0.80;;
19794;SDS011;10057;59.402;17.866;2022-07-23T14:05:47;1.43;;;0.90;;
19794;SDS011;10057;59.402;17.866;2022-07-23T14:08:14;1.93;;;0.83;;
19794;SDS011;10057;59.402;17.866;2022-07-23T14:10:41;1.33;;;0.80;;
19794;SDS011;10057;59.402;17.866;2022-07-23T14:13:08;1.50;;;0.70;;
19794;SDS011;10057;59.402;17.866;2022-07-23T14:15:35;0.87;;;0.67;;
19794;SDS011;10057;59.402;17.866;2022-07-23T14:18:04;0.80;;;0.60;;
19794;SDS011;10057;59.402;17.866;2022-07-23T14:20:31;1.27;;;0.60;;
19794;SDS011;10057;59.402;17.866;2022-07-23T14:22:58;1.43;;;0.80;;
19794;SDS011;10057;59.402;17.866;2022-07-23T14:25:31;2.00;;;0.80;;
19794;SDS011;10057;59.402;17.866;2022-07-23T14:27:58;2.57;;;0.67;;
19794;SDS011;10057;59.402;17.866;2022-07-23T14:30:25;4.87;;;0.70;;
19794;SDS011;10057;59.402;17.866;2022-07-23T14:32:59;1.90;;;0.80;;
19794;SDS011;10057;59.402;17.866;2022-07-23T14:35:26;1.63;;;0.80;;
19794;SDS011;10057;59.402;17.866;2022-07-23T14:37:53;2.60;;;0.90;;
19794;SDS011;10057;59.402;17.866;2022-07-23T14:40:20;2.37;;;0.70;;
19794;SDS011;10057;59.402;17.866;2022-07-23T14:42:48;1.33;;;0.60;;
19794;SDS011;10057;59.402;17.866;2022-07-23T14:45:15;1.43;;;0.70;;
19794;SDS011;10057;59.402;17.866;2022-07-23T14:47:44;1.53;;;0.70;;
19794;SDS011;10057;59.402;17.866;2022-07-23T14:50:12;1.20;;;0.70;;
19794;SDS011;10057;59.402;17.866;2022-07-23T14:52:40;1.83;;;0.80;;
19794;SDS011;10057;59.402;17.866;2022-07-23T14:55:07;1.30;;;0.80;;
19794;SDS011;10057;59.402;17.866;2022-07-23T14:57:33;2.97;;;0.70;;
19794;SDS011;10057;59.402;17.866;2022-07-23T15:00:00;1.17;;;0.77;;
19794;SDS011;10057;59.402;17.866;2022-07-23T15:02:27;1.57;;;0.67;;
19794;SDS011;10057;59.402;17.866;2022-07-23T15:04:54;1.10;;;0.60;;
19794;SDS011;10057;59.402;17.866;2022-07-23T15:07:21;1.07;;;0.80;;
19794;SDS011;10057;59.402;17.866;2022-07-23T15:09:52;1.60;;;0.70;;
19794;SDS011;10057;59.402;17.866;2022-07-23T15:12:19;2.27;;;0.80;;
19794;SDS011;10057;59.402;17.866;2022-07-23T15:14:48;0.90;;;0.80;;
19794;SDS011;10057;59.402;17.866;2022-07-23T15:17:14;2.43;;;1.43;;
19794;SDS011;10057;59.402;17.866;2022-07-23T15:19:41;2.37;;;1.07;;
19794;SDS011;10057;59.402;17.866;2022-07-23T15:22:08;0.73;;;0.70;;
19794;SDS011;10057;59.402;17.866;2022-07-23T15:24:35;1.73;;;0.90;;
19794;SDS011;10057;59.402;17.866;2022-07-23T15:27:02;1.27;;;0.83;;
19794;SDS011;10057;59.402;17.866;2022-07-23T15:29:29;0.70;;;0.60;;
19794;SDS011;10057;59.402;17.866;2022-07-23T15:31:56;3.50;;;0.80;;
19794;SDS011;10057;59.402;17.866;2022-07-23T15:34:25;1.50;;;0.70;;
19794;SDS011;10057;59.402;17.866;2022-07-23T15:36:52;2.10;;;0.70;;